sensor_id;sensor_type;location;lat;lon;timestamp;P1;durP1;ratioP1;P2;durP2;ratioP2
64500;SDS011;50874;24.150;-110.320;2023-02-12T00:00:48;14.13;;;3.47;;
64500;SDS011;50874;24.150;-110.320;2023-02-12T00:03:16;24.98;;;4.05;;
64500;SDS011;50874;24.150;-110.320;2023-02-12T00:05:42;25.08;;;3.13;;
64500;SDS011;50874;24.150;-110.320;2023-02-12T00:08:09;24.20;;;4.45;;
64500;SDS011;50874;24.150;-110.320;2023-02-12T00:10:39;38.55;;;4.15;;
64500;SDS011;50874;24.150;-110.320;2023-02-12T00:13:07;28.92;;;3.45;;
64500;SDS011;50874;24.150;-110.320;2023-02-12T00:15:40;24.83;;;3.40;;
64500;SDS011;50874;24.150;-110.320;2023-02-12T00:18:08;27.55;;;3.22;;
64500;SDS011;50874;24.150;-110.320;2023-02-12T00:20:35;22.48;;;2.60;;
64500;SDS011;50874;24.150;-110.320;2023-02-12T00:23:03;22.85;;;3.25;;
64500;SDS011;50874;24.150;-110.320;2023-02-12T00:25:30;28.38;;;3.10;;
64500;SDS011;50874;24.150;-110.320;2023-02-12T00:27:56;26.02;;;3.30;;
64500;SDS011;50874;24.150;-110.320;2023-02-12T00:30:23;15.75;;;4.10;;
64500;SDS011;50874;24.150;-110.320;2023-02-12T00:32:49;92.60;;;9.15;;
64500;SDS011;50874;24.150;-110.320;2023-02-12T00:35:16;31.33;;;4.80;;
64500;SDS011;50874;24.150;-110.320;2023-02-12T00:37:42;44.78;;;5.55;;
64500;SDS011;50874;24.150;-110.320;2023-02-12T00:40:09;22.45;;;3.13;;
64500;SDS011;50874;24.150;-110.320;2023-02-12T00:42:36;38.63;;;4.13;;
64500;SDS011;50874;24.150;-110.320;2023-02-12T00:45:02;12.23;;;2.75;;
64500;SDS011;50874;24.150;-110.320;2023-02-12T00:47:29;21.88;;;3.60;;
64500;SDS011;50874;24.150;-110.320;2023-02-12T00:49:55;35.92;;;4.28;;
64500;SDS011;50874;24.150;-110.320;2023-02-12T00:52:21;33.08;;;4.97;;
64500;SDS011;50874;24.150;-110.320;2023-02-12T00:54:48;29.83;;;4.45;;
64500;SDS011;50874;24.150;-110.320;2023-02-12T00:57:14;28.25;;;4.38;;
64500;SDS011;50874;24.150;-110.320;2023-02-12T00:59:41;27.52;;;4.07;;
64500;SDS011;50874;24.150;-110.320;2023-02-12T01:02:07;24.10;;;3.80;;
64500;SDS011;50874;24.150;-110.320;2023-02-12T01:04:34;37.03;;;5.13;;
64500;SDS011;50874;24.150;-110.320;2023-02-12T01:07:00;53.97;;;8.10;;
64500;SDS011;50874;24.150;-110.320;2023-02-12T01:09:27;76.50;;;10.80;;
64500;SDS011;50874;24.150;-110.320;2023-02-12T01:11:53;61.33;;;8.70;;
64500;SDS011;50874;24.150;-110.320;2023-02-12T01:14:20;48.95;;;6.32;;
64500;SDS011;50874;24.150;-110.320;2023-02-12T01:16:46;45.83;;;6.38;;
64500;SDS011;50874;24.150;-110.320;2023-02-12T01:19:13;52.85;;;6.32;;
64500;SDS011;50874;24.150;-110.320;2023-02-12T01:21:40;68.20;;;8.70;;
64500;SDS011;50874;24.150;-110.320;2023-02-12T01:24:06;39.47;;;6.07;;
64500;SDS011;50874;24.150;-110.320;2023-02-12T01:26:33;31.83;;;6.05;;
64500;SDS011;50874;24.150;-110.320;2023-02-12T01:29:00;51.95;;;6.03;;
64500;SDS011;50874;24.150;-110.320;2023-02-12T01:31:30;33.95;;;6.97;;
64500;SDS011;50874;24.150;-110.320;2023-02-12T01:33:59;69.97;;;9.82;;
64500;SDS011;50874;24.150;-110.320;2023-02-12T01:36:26;66.05;;;8.57;;
64500;SDS011;50874;24.150;-110.320;2023-02-12T01:38:54;61.13;;;10.50;;
64500;SDS011;50874;24.150;-110.320;2023-02-12T01:41:23;64.10;;;8.20;;
64500;SDS011;50874;24.150;-110.320;2023-02-12T01:44:06;55.63;;;8.15;;
64500;SDS011;50874;24.150;-110.320;2023-02-12T01:46:38;57.85;;;8.10;;
64500;SDS011;50874;24.150;-110.320;2023-02-12T01:49:07;64.18;;;9.13;;
64500;SDS011;50874;24.150;-110.320;2023-02-12T01:51:37;72.45;;;8.55;;
64500;SDS011;50874;24.150;-110.320;2023-02-12T01:54:06;52.88;;;7.72;;
64500;SDS011;50874;24.150;-110.320;2023-02-12T01:56:35;46.35;;;6.47;;
64500;SDS011;50874;24.150;-110.320;2023-02-12T01:59:02;33.83;;;5.30;;
64500;SDS011;50874;24.150;-110.320;2023-02-12T02:01:30;54.83;;;6.03;;
64500;SDS011;50874;24.150;-110.320;2023-02-12T02:04:02;49.13;;;5.00;;
64500;SDS011;50874;24.150;-110.320;2023-02-12T02:06:33;32.28;;;4.85;;
64500;SDS011;50874;24.150;-110.320;2023-02-12T02:09:04;29.75;;;4.20;;
64500;SDS011;50874;24.150;-110.320;2023-02-12T02:11:30;46.65;;;4.10;;
64500;SDS011;50874;24.150;-110.320;2023-02-12T02:14:15;25.25;;;3.45;;
64500;SDS011;50874;24.150;-110.320;2023-02-12T02:29:03;30.42;;;4.60;;
64500;SDS011;50874;24.150;-110.320;2023-02-12T02:31:53;34.95;;;4.40;;
64500;SDS011;50874;24.150;-110.320;2023-02-12T02:34:33;31.17;;;3.40;;
64500;SDS011;50874;24.150;-110.320;2023-02-12T02:37:11;19.33;;;3.40;;
64500;SDS011;50874;24.150;-110.320;2023-02-12T02:45:33;37.40;;;5.15;;
64500;SDS011;50874;24.150;-110.320;2023-02-12T02:48:07;31.60;;;5.28;;
64500;SDS011;50874;24.150;-110.320;2023-02-12T02:50:39;32.45;;;5.18;;
64500;SDS011;50874;24.150;-110.320;2023-02-12T02:53:15;31.15;;;6.72;;
64500;SDS011;50874;24.150;-110.320;2023-02-12T02:58:37;56.20;;;6.15;;
64500;SDS011;50874;24.150;-110.320;2023-02-12T03:06:52;51.75;;;12.07;;
64500;SDS011;50874;24.150;-110.320;2023-02-12T03:09:45;49.15;;;11.60;;
64500;SDS011;50874;24.150;-110.320;2023-02-12T03:12:22;40.33;;;8.35;;
64500;SDS011;50874;24.150;-110.320;2023-02-12T03:15:13;51.45;;;10.05;;
64500;SDS011;50874;24.150;-110.320;2023-02-12T03:18:00;47.97;;;9.98;;
64500;SDS011;50874;24.150;-110.320;2023-02-12T03:20:32;52.17;;;7.95;;
64500;SDS011;50874;24.150;-110.320;2023-02-12T03:23:09;33.40;;;5.75;;
64500;SDS011;50874;24.150;-110.320;2023-02-12T03:25:43;28.50;;;5.47;;
64500;SDS011;50874;24.150;-110.320;2023-02-12T03:28:32;21.02;;;4.03;;
64500;SDS011;50874;24.150;-110.320;2023-02-12T03:39:00;24.35;;;4.13;;
64500;SDS011;50874;24.150;-110.320;2023-02-12T03:42:17;18.58;;;3.55;;
64500;SDS011;50874;24.150;-110.320;2023-02-12T03:50:16;26.13;;;3.67;;
64500;SDS011;50874;24.150;-110.320;2023-02-12T03:52:49;18.00;;;3.22;;
64500;SDS011;50874;24.150;-110.320;2023-02-12T03:55:16;15.60;;;2.80;;
64500;SDS011;50874;24.150;-110.320;2023-02-12T03:57:43;15.85;;;3.00;;
64500;SDS011;50874;24.150;-110.320;2023-02-12T04:00:17;10.82;;;3.67;;
64500;SDS011;50874;24.150;-110.320;2023-02-12T04:02:45;22.88;;;3.20;;
64500;SDS011;50874;24.150;-110.320;2023-02-12T04:05:16;12.73;;;3.00;;
64500;SDS011;50874;24.150;-110.320;2023-02-12T04:07:44;17.67;;;3.55;;
64500;SDS011;50874;24.150;-110.320;2023-02-12T04:10:11;24.75;;;3.50;;
64500;SDS011;50874;24.150;-110.320;2023-02-12T04:18:21;17.85;;;3.53;;
64500;SDS011;50874;24.150;-110.320;2023-02-12T04:26:46;20.08;;;3.05;;
64500;SDS011;50874;24.150;-110.320;2023-02-12T04:37:40;16.43;;;2.67;;
64500;SDS011;50874;24.150;-110.320;2023-02-12T04:40:11;11.77;;;2.67;;
64500;SDS011;50874;24.150;-110.320;2023-02-12T04:42:44;10.52;;;2.38;;
64500;SDS011;50874;24.150;-110.320;2023-02-12T04:45:18;23.95;;;3.08;;
64500;SDS011;50874;24.150;-110.320;2023-02-12T04:47:53;18.50;;;3.80;;
64500;SDS011;50874;24.150;-110.320;2023-02-12T04:50:19;22.45;;;2.92;;
64500;SDS011;50874;24.150;-110.320;2023-02-12T04:52:46;13.50;;;2.88;;
64500;SDS011;50874;24.150;-110.320;2023-02-12T04:55:13;18.63;;;2.95;;
64500;SDS011;50874;24.150;-110.320;2023-02-12T04:57:39;30.55;;;3.33;;
64500;SDS011;50874;24.150;-110.320;2023-02-12T05:00:08;14.82;;;2.45;;
64500;SDS011;50874;24.150;-110.320;2023-02-12T05:02:37;7.00;;;1.75;;
64500;SDS011;50874;24.150;-110.320;2023-02-12T05:05:04;16.95;;;2.58;;
64500;SDS011;50874;24.150;-110.320;2023-02-12T05:07:31;14.15;;;2.70;;
64500;SDS011;50874;24.150;-110.320;2023-02-12T05:09:57;12.90;;;1.67;;
64500;SDS011;50874;24.150;-110.320;2023-02-12T05:12:24;12.93;;;2.75;;
64500;SDS011;50874;24.150;-110.320;2023-02-12T05:14:50;16.60;;;2.00;;
64500;SDS011;50874;24.150;-110.320;2023-02-12T05:17:17;8.05;;;2.28;;
64500;SDS011;50874;24.150;-110.320;2023-02-12T05:19:43;16.33;;;2.40;;
64500;SDS011;50874;24.150;-110.320;2023-02-12T05:22:09;23.50;;;3.22;;
64500;SDS011;50874;24.150;-110.320;2023-02-12T05:24:37;14.07;;;2.55;;
64500;SDS011;50874;24.150;-110.320;2023-02-12T05:27:04;26.80;;;2.53;;
64500;SDS011;50874;24.150;-110.320;2023-02-12T05:29:33;9.98;;;2.13;;
64500;SDS011;50874;24.150;-110.320;2023-02-12T05:32:00;8.07;;;1.60;;
64500;SDS011;50874;24.150;-110.320;2023-02-12T05:34:27;14.90;;;1.98;;
64500;SDS011;50874;24.150;-110.320;2023-02-12T05:36:53;12.98;;;1.77;;
64500;SDS011;50874;24.150;-110.320;2023-02-12T05:39:20;9.88;;;1.70;;
64500;SDS011;50874;24.150;-110.320;2023-02-12T05:41:46;13.52;;;2.15;;
64500;SDS011;50874;24.150;-110.320;2023-02-12T05:44:13;14.13;;;2.03;;
64500;SDS011;50874;24.150;-110.320;2023-02-12T05:46:40;12.07;;;1.80;;
64500;SDS011;50874;24.150;-110.320;2023-02-12T05:49:07;14.05;;;2.85;;
64500;SDS011;50874;24.150;-110.320;2023-02-12T05:51:34;21.15;;;2.83;;
64500;SDS011;50874;24.150;-110.320;2023-02-12T05:54:02;20.85;;;2.60;;
64500;SDS011;50874;24.150;-110.320;2023-02-12T05:56:30;9.20;;;3.03;;
64500;SDS011;50874;24.150;-110.320;2023-02-12T05:59:02;77.63;;;8.50;;
64500;SDS011;50874;24.150;-110.320;2023-02-12T06:01:32;19.73;;;3.80;;
64500;SDS011;50874;24.150;-110.320;2023-02-12T06:04:01;16.60;;;2.30;;
64500;SDS011;50874;24.150;-110.320;2023-02-12T06:06:29;9.57;;;2.10;;
64500;SDS011;50874;24.150;-110.320;2023-02-12T06:08:58;26.60;;;3.17;;
64500;SDS011;50874;24.150;-110.320;2023-02-12T06:11:25;27.88;;;3.67;;
64500;SDS011;50874;24.150;-110.320;2023-02-12T06:13:52;65.63;;;5.88;;
64500;SDS011;50874;24.150;-110.320;2023-02-12T06:16:27;34.70;;;5.10;;
64500;SDS011;50874;24.150;-110.320;2023-02-12T06:18:54;34.38;;;4.60;;
64500;SDS011;50874;24.150;-110.320;2023-02-12T06:21:25;27.50;;;5.13;;
64500;SDS011;50874;24.150;-110.320;2023-02-12T06:23:52;29.02;;;5.18;;
64500;SDS011;50874;24.150;-110.320;2023-02-12T06:26:19;23.27;;;4.60;;
64500;SDS011;50874;24.150;-110.320;2023-02-12T06:28:46;17.88;;;3.65;;
64500;SDS011;50874;24.150;-110.320;2023-02-12T06:31:46;19.35;;;3.45;;
64500;SDS011;50874;24.150;-110.320;2023-02-12T06:34:08;21.60;;;3.33;;
64500;SDS011;50874;24.150;-110.320;2023-02-12T06:36:39;32.92;;;4.35;;
64500;SDS011;50874;24.150;-110.320;2023-02-12T06:39:08;32.78;;;3.78;;
64500;SDS011;50874;24.150;-110.320;2023-02-12T06:41:36;33.35;;;5.55;;
64500;SDS011;50874;24.150;-110.320;2023-02-12T06:44:03;14.70;;;2.75;;
64500;SDS011;50874;24.150;-110.320;2023-02-12T06:46:30;12.55;;;3.25;;
64500;SDS011;50874;24.150;-110.320;2023-02-12T06:48:58;20.60;;;2.92;;
64500;SDS011;50874;24.150;-110.320;2023-02-12T06:51:26;23.73;;;3.55;;
64500;SDS011;50874;24.150;-110.320;2023-02-12T06:53:53;15.95;;;4.13;;
64500;SDS011;50874;24.150;-110.320;2023-02-12T06:56:21;8.25;;;2.70;;
64500;SDS011;50874;24.150;-110.320;2023-02-12T06:58:53;30.40;;;3.72;;
64500;SDS011;50874;24.150;-110.320;2023-02-12T07:01:22;20.85;;;3.33;;
64500;SDS011;50874;24.150;-110.320;2023-02-12T07:03:55;37.55;;;4.25;;
64500;SDS011;50874;24.150;-110.320;2023-02-12T07:06:24;21.13;;;3.33;;
64500;SDS011;50874;24.150;-110.320;2023-02-12T07:08:52;26.95;;;2.85;;
64500;SDS011;50874;24.150;-110.320;2023-02-12T07:11:29;28.20;;;4.38;;
64500;SDS011;50874;24.150;-110.320;2023-02-12T07:13:58;24.55;;;4.38;;
64500;SDS011;50874;24.150;-110.320;2023-02-12T07:16:24;30.67;;;4.03;;
64500;SDS011;50874;24.150;-110.320;2023-02-12T07:18:51;48.38;;;5.53;;
64500;SDS011;50874;24.150;-110.320;2023-02-12T07:21:18;36.40;;;3.42;;
64500;SDS011;50874;24.150;-110.320;2023-02-12T07:23:45;27.02;;;4.13;;
64500;SDS011;50874;24.150;-110.320;2023-02-12T07:26:13;27.02;;;3.58;;
64500;SDS011;50874;24.150;-110.320;2023-02-12T07:28:40;20.23;;;2.83;;
64500;SDS011;50874;24.150;-110.320;2023-02-12T07:31:08;19.95;;;3.67;;
64500;SDS011;50874;24.150;-110.320;2023-02-12T07:33:37;18.77;;;2.88;;
64500;SDS011;50874;24.150;-110.320;2023-02-12T07:36:04;9.05;;;1.70;;
64500;SDS011;50874;24.150;-110.320;2023-02-12T07:38:33;7.28;;;1.77;;
64500;SDS011;50874;24.150;-110.320;2023-02-12T07:41:36;10.68;;;1.55;;
64500;SDS011;50874;24.150;-110.320;2023-02-12T07:43:58;22.38;;;2.92;;
64500;SDS011;50874;24.150;-110.320;2023-02-12T07:46:32;16.45;;;2.42;;
64500;SDS011;50874;24.150;-110.320;2023-02-12T07:49:05;24.20;;;3.05;;
64500;SDS011;50874;24.150;-110.320;2023-02-12T07:51:35;15.25;;;3.22;;
64500;SDS011;50874;24.150;-110.320;2023-02-12T07:54:02;13.55;;;3.10;;
64500;SDS011;50874;24.150;-110.320;2023-02-12T07:56:30;20.10;;;3.25;;
64500;SDS011;50874;24.150;-110.320;2023-02-12T07:59:00;41.05;;;3.83;;
64500;SDS011;50874;24.150;-110.320;2023-02-12T08:01:35;20.23;;;2.55;;
64500;SDS011;50874;24.150;-110.320;2023-02-12T08:04:07;27.77;;;3.88;;
64500;SDS011;50874;24.150;-110.320;2023-02-12T08:06:39;33.40;;;4.63;;
64500;SDS011;50874;24.150;-110.320;2023-02-12T08:09:08;30.08;;;3.90;;
64500;SDS011;50874;24.150;-110.320;2023-02-12T08:11:36;22.98;;;3.75;;
64500;SDS011;50874;24.150;-110.320;2023-02-12T08:14:03;17.55;;;2.58;;
64500;SDS011;50874;24.150;-110.320;2023-02-12T08:16:30;37.55;;;3.00;;
64500;SDS011;50874;24.150;-110.320;2023-02-12T08:19:02;22.67;;;3.35;;
64500;SDS011;50874;24.150;-110.320;2023-02-12T08:21:29;17.05;;;2.95;;
64500;SDS011;50874;24.150;-110.320;2023-02-12T08:23:56;16.30;;;2.70;;
64500;SDS011;50874;24.150;-110.320;2023-02-12T08:26:24;19.80;;;3.28;;
64500;SDS011;50874;24.150;-110.320;2023-02-12T08:28:54;10.40;;;2.20;;
64500;SDS011;50874;24.150;-110.320;2023-02-12T08:31:23;29.35;;;3.13;;
64500;SDS011;50874;24.150;-110.320;2023-02-12T08:33:51;55.78;;;4.20;;
64500;SDS011;50874;24.150;-110.320;2023-02-12T08:36:23;18.40;;;3.08;;
64500;SDS011;50874;24.150;-110.320;2023-02-12T08:38:56;18.80;;;2.25;;
64500;SDS011;50874;24.150;-110.320;2023-02-12T08:41:25;24.27;;;3.15;;
64500;SDS011;50874;24.150;-110.320;2023-02-12T08:43:54;21.90;;;3.97;;
64500;SDS011;50874;24.150;-110.320;2023-02-12T08:46:26;22.38;;;3.55;;
64500;SDS011;50874;24.150;-110.320;2023-02-12T08:48:54;28.83;;;3.08;;
64500;SDS011;50874;24.150;-110.320;2023-02-12T08:51:23;18.98;;;3.13;;
64500;SDS011;50874;24.150;-110.320;2023-02-12T08:53:52;21.23;;;3.10;;
64500;SDS011;50874;24.150;-110.320;2023-02-12T08:56:20;19.90;;;3.05;;
64500;SDS011;50874;24.150;-110.320;2023-02-12T08:58:48;21.90;;;2.75;;
64500;SDS011;50874;24.150;-110.320;2023-02-12T09:01:16;19.08;;;2.75;;
64500;SDS011;50874;24.150;-110.320;2023-02-12T09:03:45;10.52;;;2.33;;
64500;SDS011;50874;24.150;-110.320;2023-02-12T09:06:12;18.42;;;2.90;;
64500;SDS011;50874;24.150;-110.320;2023-02-12T09:08:41;10.88;;;2.38;;
64500;SDS011;50874;24.150;-110.320;2023-02-12T09:11:08;29.70;;;2.55;;
64500;SDS011;50874;24.150;-110.320;2023-02-12T09:13:37;12.20;;;1.95;;
64500;SDS011;50874;24.150;-110.320;2023-02-12T09:16:05;18.30;;;1.88;;
64500;SDS011;50874;24.150;-110.320;2023-02-12T09:18:32;6.50;;;2.42;;
64500;SDS011;50874;24.150;-110.320;2023-02-12T09:21:03;10.07;;;2.13;;
64500;SDS011;50874;24.150;-110.320;2023-02-12T09:23:32;26.95;;;4.30;;
64500;SDS011;50874;24.150;-110.320;2023-02-12T09:26:02;17.60;;;3.42;;
64500;SDS011;50874;24.150;-110.320;2023-02-12T09:28:33;29.42;;;3.80;;
64500;SDS011;50874;24.150;-110.320;2023-02-12T09:31:07;18.52;;;3.13;;
64500;SDS011;50874;24.150;-110.320;2023-02-12T09:33:35;18.77;;;2.58;;
64500;SDS011;50874;24.150;-110.320;2023-02-12T09:36:07;11.65;;;2.45;;
64500;SDS011;50874;24.150;-110.320;2023-02-12T09:38:41;8.60;;;2.05;;
64500;SDS011;50874;24.150;-110.320;2023-02-12T09:43:50;11.27;;;1.85;;
64500;SDS011;50874;24.150;-110.320;2023-02-12T09:52:16;9.45;;;1.77;;
64500;SDS011;50874;24.150;-110.320;2023-02-12T09:54:45;7.60;;;1.40;;
64500;SDS011;50874;24.150;-110.320;2023-02-12T09:57:18;18.48;;;1.83;;
64500;SDS011;50874;24.150;-110.320;2023-02-12T10:00:31;27.73;;;3.25;;
64500;SDS011;50874;24.150;-110.320;2023-02-12T10:02:59;33.78;;;3.38;;
64500;SDS011;50874;24.150;-110.320;2023-02-12T10:05:28;11.93;;;2.97;;
64500;SDS011;50874;24.150;-110.320;2023-02-12T10:15:46;11.93;;;2.85;;
64500;SDS011;50874;24.150;-110.320;2023-02-12T10:26:46;4.53;;;1.92;;
64500;SDS011;50874;24.150;-110.320;2023-02-12T10:29:24;6.85;;;1.58;;
64500;SDS011;50874;24.150;-110.320;2023-02-12T10:31:58;10.15;;;1.80;;
64500;SDS011;50874;24.150;-110.320;2023-02-12T10:34:29;4.50;;;1.25;;
64500;SDS011;50874;24.150;-110.320;2023-02-12T10:37:02;5.68;;;1.67;;
64500;SDS011;50874;24.150;-110.320;2023-02-12T10:39:52;12.32;;;1.77;;
64500;SDS011;50874;24.150;-110.320;2023-02-12T10:42:39;9.50;;;1.25;;
64500;SDS011;50874;24.150;-110.320;2023-02-12T10:45:15;13.27;;;1.80;;
64500;SDS011;50874;24.150;-110.320;2023-02-12T10:47:50;11.93;;;2.17;;
64500;SDS011;50874;24.150;-110.320;2023-02-12T10:53:23;16.42;;;1.60;;
64500;SDS011;50874;24.150;-110.320;2023-02-12T10:56:09;8.38;;;1.42;;
64500;SDS011;50874;24.150;-110.320;2023-02-12T11:07:06;7.18;;;1.30;;
64500;SDS011;50874;24.150;-110.320;2023-02-12T11:09:37;7.03;;;1.35;;
64500;SDS011;50874;24.150;-110.320;2023-02-12T11:14:54;7.68;;;1.42;;
64500;SDS011;50874;24.150;-110.320;2023-02-12T11:17:53;6.40;;;1.30;;
64500;SDS011;50874;24.150;-110.320;2023-02-12T11:20:23;5.82;;;0.80;;
64500;SDS011;50874;24.150;-110.320;2023-02-12T11:23:23;6.82;;;1.58;;
64500;SDS011;50874;24.150;-110.320;2023-02-12T11:29:02;8.23;;;1.08;;
64500;SDS011;50874;24.150;-110.320;2023-02-12T11:32:05;8.80;;;1.10;;
64500;SDS011;50874;24.150;-110.320;2023-02-12T11:34:33;9.40;;;1.55;;
64500;SDS011;50874;24.150;-110.320;2023-02-12T11:37:00;3.08;;;0.80;;
64500;SDS011;50874;24.150;-110.320;2023-02-12T11:39:39;6.47;;;0.90;;
64500;SDS011;50874;24.150;-110.320;2023-02-12T11:44:40;7.30;;;1.70;;
64500;SDS011;50874;24.150;-110.320;2023-02-12T11:47:19;7.43;;;1.30;;
64500;SDS011;50874;24.150;-110.320;2023-02-12T11:52:24;4.10;;;1.10;;
64500;SDS011;50874;24.150;-110.320;2023-02-12T11:54:54;5.30;;;1.20;;
64500;SDS011;50874;24.150;-110.320;2023-02-12T12:00:12;3.22;;;0.93;;
64500;SDS011;50874;24.150;-110.320;2023-02-12T12:03:10;15.27;;;2.08;;
64500;SDS011;50874;24.150;-110.320;2023-02-12T12:05:44;6.32;;;1.00;;
64500;SDS011;50874;24.150;-110.320;2023-02-12T12:08:43;5.47;;;1.15;;
64500;SDS011;50874;24.150;-110.320;2023-02-12T12:11:40;7.85;;;1.70;;
64500;SDS011;50874;24.150;-110.320;2023-02-12T12:16:55;9.38;;;1.70;;
64500;SDS011;50874;24.150;-110.320;2023-02-12T12:19:48;6.53;;;1.27;;
64500;SDS011;50874;24.150;-110.320;2023-02-12T12:27:54;7.35;;;1.23;;
64500;SDS011;50874;24.150;-110.320;2023-02-12T12:33:12;6.75;;;1.52;;
64500;SDS011;50874;24.150;-110.320;2023-02-12T12:49:44;6.60;;;1.30;;
64500;SDS011;50874;24.150;-110.320;2023-02-12T12:52:17;17.27;;;2.97;;
64500;SDS011;50874;24.150;-110.320;2023-02-12T12:57:31;9.32;;;1.83;;
64500;SDS011;50874;24.150;-110.320;2023-02-12T13:08:56;17.10;;;3.38;;
64500;SDS011;50874;24.150;-110.320;2023-02-12T13:19:43;15.23;;;2.92;;
64500;SDS011;50874;24.150;-110.320;2023-02-12T13:22:17;15.20;;;2.22;;
64500;SDS011;50874;24.150;-110.320;2023-02-12T13:27:53;18.13;;;2.40;;
64500;SDS011;50874;24.150;-110.320;2023-02-12T13:33:27;8.82;;;2.55;;
64500;SDS011;50874;24.150;-110.320;2023-02-12T13:36:01;8.15;;;2.00;;
64500;SDS011;50874;24.150;-110.320;2023-02-12T13:38:31;8.55;;;2.38;;
64500;SDS011;50874;24.150;-110.320;2023-02-12T13:41:03;10.73;;;2.20;;
64500;SDS011;50874;24.150;-110.320;2023-02-12T13:56:59;11.65;;;2.85;;
64500;SDS011;50874;24.150;-110.320;2023-02-12T14:02:00;16.13;;;3.58;;
64500;SDS011;50874;24.150;-110.320;2023-02-12T14:04:33;8.05;;;2.28;;
64500;SDS011;50874;24.150;-110.320;2023-02-12T14:07:08;15.98;;;3.08;;
64500;SDS011;50874;24.150;-110.320;2023-02-12T14:20:38;20.77;;;5.93;;
64500;SDS011;50874;24.150;-110.320;2023-02-12T14:27:49;18.67;;;6.57;;
64500;SDS011;50874;24.150;-110.320;2023-02-12T14:30:28;13.95;;;3.50;;
64500;SDS011;50874;24.150;-110.320;2023-02-12T14:35:40;13.77;;;3.22;;
64500;SDS011;50874;24.150;-110.320;2023-02-12T14:43:02;6.75;;;2.65;;
64500;SDS011;50874;24.150;-110.320;2023-02-12T14:45:49;15.65;;;2.70;;
64500;SDS011;50874;24.150;-110.320;2023-02-12T14:51:18;14.73;;;1.90;;
64500;SDS011;50874;24.150;-110.320;2023-02-12T14:54:01;9.93;;;2.47;;
64500;SDS011;50874;24.150;-110.320;2023-02-12T14:56:38;11.57;;;2.72;;
64500;SDS011;50874;24.150;-110.320;2023-02-12T14:59:13;7.07;;;2.55;;
64500;SDS011;50874;24.150;-110.320;2023-02-12T15:01:44;17.70;;;2.75;;
64500;SDS011;50874;24.150;-110.320;2023-02-12T15:04:34;24.15;;;3.25;;
64500;SDS011;50874;24.150;-110.320;2023-02-12T15:07:06;8.88;;;2.55;;
64500;SDS011;50874;24.150;-110.320;2023-02-12T15:09:35;11.25;;;2.33;;
64500;SDS011;50874;24.150;-110.320;2023-02-12T15:12:16;12.20;;;3.13;;
64500;SDS011;50874;24.150;-110.320;2023-02-12T15:14:57;14.02;;;3.03;;
64500;SDS011;50874;24.150;-110.320;2023-02-12T15:17:33;14.50;;;2.83;;
64500;SDS011;50874;24.150;-110.320;2023-02-12T15:20:29;15.57;;;4.03;;
64500;SDS011;50874;24.150;-110.320;2023-02-12T15:22:59;16.13;;;3.47;;
64500;SDS011;50874;24.150;-110.320;2023-02-12T15:25:30;16.98;;;3.05;;
64500;SDS011;50874;24.150;-110.320;2023-02-12T15:28:02;12.32;;;4.07;;
64500;SDS011;50874;24.150;-110.320;2023-02-12T15:30:37;5.10;;;2.08;;
64500;SDS011;50874;24.150;-110.320;2023-02-12T15:33:07;11.60;;;3.10;;
64500;SDS011;50874;24.150;-110.320;2023-02-12T15:35:38;9.05;;;2.42;;
64500;SDS011;50874;24.150;-110.320;2023-02-12T15:38:14;14.38;;;2.85;;
64500;SDS011;50874;24.150;-110.320;2023-02-12T15:40:53;10.27;;;2.20;;
64500;SDS011;50874;24.150;-110.320;2023-02-12T15:43:24;10.63;;;2.72;;
64500;SDS011;50874;24.150;-110.320;2023-02-12T15:45:53;6.43;;;2.10;;
64500;SDS011;50874;24.150;-110.320;2023-02-12T15:48:20;11.88;;;2.90;;
64500;SDS011;50874;24.150;-110.320;2023-02-12T15:50:54;12.10;;;2.55;;
64500;SDS011;50874;24.150;-110.320;2023-02-12T15:53:25;20.83;;;3.17;;
64500;SDS011;50874;24.150;-110.320;2023-02-12T15:55:54;12.77;;;2.50;;
64500;SDS011;50874;24.150;-110.320;2023-02-12T15:58:23;5.95;;;2.28;;
64500;SDS011;50874;24.150;-110.320;2023-02-12T16:00:50;7.90;;;2.10;;
64500;SDS011;50874;24.150;-110.320;2023-02-12T16:03:24;10.93;;;3.15;;
64500;SDS011;50874;24.150;-110.320;2023-02-12T16:08:30;5.70;;;2.00;;
64500;SDS011;50874;24.150;-110.320;2023-02-12T16:10:59;10.15;;;2.17;;
64500;SDS011;50874;24.150;-110.320;2023-02-12T16:13:39;10.18;;;2.33;;
64500;SDS011;50874;24.150;-110.320;2023-02-12T16:18:37;8.00;;;2.28;;
64500;SDS011;50874;24.150;-110.320;2023-02-12T16:21:21;7.68;;;2.05;;
64500;SDS011;50874;24.150;-110.320;2023-02-12T16:23:49;8.93;;;2.50;;
64500;SDS011;50874;24.150;-110.320;2023-02-12T16:26:34;13.07;;;2.35;;
64500;SDS011;50874;24.150;-110.320;2023-02-12T16:29:01;5.82;;;1.85;;
64500;SDS011;50874;24.150;-110.320;2023-02-12T16:31:28;15.18;;;2.60;;
64500;SDS011;50874;24.150;-110.320;2023-02-12T16:33:55;16.38;;;2.42;;
64500;SDS011;50874;24.150;-110.320;2023-02-12T16:43:50;5.72;;;1.88;;
64500;SDS011;50874;24.150;-110.320;2023-02-12T16:46:45;14.68;;;2.38;;
64500;SDS011;50874;24.150;-110.320;2023-02-12T16:49:18;12.98;;;2.33;;
64500;SDS011;50874;24.150;-110.320;2023-02-12T16:51:46;9.77;;;2.30;;
64500;SDS011;50874;24.150;-110.320;2023-02-12T16:54:33;13.20;;;2.58;;
64500;SDS011;50874;24.150;-110.320;2023-02-12T16:57:00;4.80;;;1.73;;
64500;SDS011;50874;24.150;-110.320;2023-02-12T16:59:27;4.70;;;1.58;;
64500;SDS011;50874;24.150;-110.320;2023-02-12T17:02:01;6.93;;;2.40;;
64500;SDS011;50874;24.150;-110.320;2023-02-12T17:04:38;5.90;;;1.40;;
64500;SDS011;50874;24.150;-110.320;2023-02-12T17:07:15;6.90;;;1.90;;
64500;SDS011;50874;24.150;-110.320;2023-02-12T17:09:43;9.88;;;1.88;;
64500;SDS011;50874;24.150;-110.320;2023-02-12T17:12:09;15.80;;;1.90;;
64500;SDS011;50874;24.150;-110.320;2023-02-12T17:14:35;8.13;;;1.60;;
64500;SDS011;50874;24.150;-110.320;2023-02-12T17:17:02;8.02;;;2.28;;
64500;SDS011;50874;24.150;-110.320;2023-02-12T17:19:28;9.73;;;1.50;;
64500;SDS011;50874;24.150;-110.320;2023-02-12T17:21:55;17.13;;;2.30;;
64500;SDS011;50874;24.150;-110.320;2023-02-12T17:24:23;4.60;;;1.52;;
64500;SDS011;50874;24.150;-110.320;2023-02-12T17:26:51;6.68;;;1.67;;
64500;SDS011;50874;24.150;-110.320;2023-02-12T17:29:19;9.25;;;2.45;;
64500;SDS011;50874;24.150;-110.320;2023-02-12T17:31:47;2.63;;;1.20;;
64500;SDS011;50874;24.150;-110.320;2023-02-12T17:34:14;7.28;;;1.35;;
64500;SDS011;50874;24.150;-110.320;2023-02-12T17:36:41;11.63;;;2.00;;
64500;SDS011;50874;24.150;-110.320;2023-02-12T17:39:08;5.68;;;1.35;;
64500;SDS011;50874;24.150;-110.320;2023-02-12T17:41:36;9.65;;;1.50;;
64500;SDS011;50874;24.150;-110.320;2023-02-12T17:44:03;9.02;;;1.85;;
64500;SDS011;50874;24.150;-110.320;2023-02-12T17:46:30;3.97;;;1.20;;
64500;SDS011;50874;24.150;-110.320;2023-02-12T17:48:56;4.93;;;1.33;;
64500;SDS011;50874;24.150;-110.320;2023-02-12T17:51:23;11.32;;;1.55;;
64500;SDS011;50874;24.150;-110.320;2023-02-12T17:53:50;4.00;;;1.10;;
64500;SDS011;50874;24.150;-110.320;2023-02-12T17:56:18;10.80;;;1.70;;
64500;SDS011;50874;24.150;-110.320;2023-02-12T17:58:46;12.05;;;1.27;;